This is the latest recevied weather packets stored in our database for station/object GW1469. If no packets are shown the sender has not sent any weather packets the latest 10 day(s).
| Time | Temp. | Humidity | Pressure | Rain* | Wind** | Luminosity | Snow |
|---|---|---|---|---|---|---|---|
| 1777940113 | 17.22° C | 70% | 1021.6 hPa | 2.79 mm | - | - | - |
| 1777939035 | 18.33° C | 63% | 1021.6 hPa | 2.79 mm | - | - | - |
| 1777937621 | 19.44° C | 56% | 1021.6 hPa | 2.79 mm | - | - | - |
| 1777935107 | 22.22° C | 49% | 1022 hPa | 2.79 mm | - | - | - |
| 1777934376 | 22.22° C | 46% | 1022 hPa | 2.79 mm | - | - | - |
| 1777933996 | 22.78° C | 46% | 1022 hPa | 2.79 mm | - | - | - |
| 1777932196 | 23.89° C | 36% | 1021.6 hPa | 2.79 mm | - | - | - |
| 1777929328 | 25.56° C | 39% | 1022 hPa | 2.79 mm | - | - | - |
| 1777928990 | 25.56° C | 37% | 1022 hPa | 2.79 mm | - | - | - |
| 1777927172 | 23.89° C | 46% | 1022.3 hPa | 2.79 mm | - | - | - |
| 1777925741 | 23.33° C | 46% | 1022.3 hPa | 2.79 mm | - | - | - |
| 1777923576 | 23.89° C | 49% | 1023 hPa | 2.79 mm | - | - | - |
| 1777922842 | 22.78° C | 49% | 1023.3 hPa | 2.79 mm | - | - | - |
| 1777921789 | 22.78° C | 46% | 1023.3 hPa | 2.79 mm | - | - | - |
| 1777921053 | 21.67° C | 48% | 1023.3 hPa | 2.79 mm | - | - | - |
| 1777920335 | 22.22° C | 46% | 1023.3 hPa | 2.79 mm | - | - | - |
| 1777917800 | 21.67° C | 51% | 1023.7 hPa | 2.79 mm | - | - | - |
| 1777917468 | 20.56° C | 52% | 1023.7 hPa | 2.79 mm | - | - | - |
| 1777915633 | 20° C | 54% | 1024 hPa | 2.79 mm | - | - | - |
| 1777913498 | 18.89° C | 67% | 1025 hPa | 2.79 mm | - | - | - |
| 1777911690 | 17.78° C | 74% | 1025.3 hPa | 2.79 mm | - | - | - |
| 1777911312 | 17.78° C | 74% | 1025 hPa | 2.79 mm | - | - | - |
| 1777910082 | 17.22° C | 73% | 1025.7 hPa | 2.79 mm | - | - | - |
| 1777908269 | 15.56° C | 79% | 1025.7 hPa | 2.79 mm | - | - | - |
| 1777907533 | 14.44° C | 83% | 1026 hPa | 2.79 mm | - | - | - |
* Rain since midnight (hover to see other rain measurements)
** Current wind speed in m/s (hover to see current wind gust speed)